Time;durP1;ratioP1;P1;durP2;ratioP2;P2;SDS_P1;SDS_P2;PMS_P1;PMS_P2;Temp;Humidity;BMP_temperature;BMP_pressure;BME280_temperature;BME280_humidity;BME280_pressure;Samples;Min_cycle;Max_cycle;Signal;HPM_P1;HPM_P2
2021/11/03 00:02:08;;;;;;;45.25;32.72;;;;;;;;;;143725;618;47019;-57
2021/11/03 00:04:36;;;;;;;50.85;36.33;;;;;;;;;;143724;619;47010;-57
2021/11/03 00:07:04;;;;;;;38.55;31.05;;;;;;;;;;143724;697;46018;-57
2021/11/03 00:09:32;;;;;;;45.17;33.42;;;;;;;;;;143728;605;46022;-57
2021/11/03 00:11:59;;;;;;;60.47;43.38;;;;;;;;;;143724;581;47018;-57
2021/11/03 00:14:26;;;;;;;58.25;43.67;;;;;;;;;;143724;676;47010;-57
2021/11/03 00:16:53;;;;;;;56.67;40.58;;;;;;;;;;143719;571;46018;-59
2021/11/03 00:19:20;;;;;;;51.75;37.75;;;;;;;;;;143726;569;46023;-59
2021/11/03 00:21:47;;;;;;;47.83;35.47;;;;;;;;;;143724;564;47018;-57
2021/11/03 00:24:14;;;;;;;43.35;32.50;;;;;;;;;;143725;615;47010;-57
2021/11/03 00:26:41;;;;;;;42.60;29.42;;;;;;;;;;143723;589;46019;-57
2021/11/03 00:29:08;;;;;;;35.30;27.00;;;;;;;;;;143750;574;45022;-58
2021/11/03 00:31:35;;;;;;;31.90;24.15;;;;;;;;;;143749;589;46019;-57
2021/11/03 00:34:02;;;;;;;34.38;26.23;;;;;;;;;;143750;626;46010;-57
2021/11/03 00:36:29;;;;;;;30.70;23.70;;;;;;;;;;143747;677;45909;-59
2021/11/03 00:38:57;;;;;;;32.60;22.87;;;;;;;;;;143750;576;45022;-58
2021/11/03 00:41:24;;;;;;;31.27;24.23;;;;;;;;;;143747;628;46018;-59
2021/11/03 00:43:52;;;;;;;33.17;23.27;;;;;;;;;;143746;573;46010;-58
2021/11/03 00:46:20;;;;;;;28.40;21.23;;;;;;;;;;143749;592;45018;-58
2021/11/03 00:48:47;;;;;;;32.10;21.60;;;;;;;;;;143751;590;45023;-58
2021/11/03 00:51:15;;;;;;;36.00;28.83;;;;;;;;;;143750;575;46018;-58
2021/11/03 00:53:42;;;;;;;46.80;32.40;;;;;;;;;;143747;564;46010;-59
2021/11/03 00:56:09;;;;;;;42.62;29.95;;;;;;;;;;143748;578;45909;-57
2021/11/03 00:58:36;;;;;;;29.00;24.17;;;;;;;;;;143751;631;45022;-58
2021/11/03 01:01:04;;;;;;;29.60;22.77;;;;;;;;;;143748;694;46020;-58
2021/11/03 01:03:31;;;;;;;31.48;24.33;;;;;;;;;;143747;604;46010;-57
2021/11/03 01:05:58;;;;;;;28.65;23.75;;;;;;;;;;143748;642;45908;-58
2021/11/03 01:08:25;;;;;;;40.70;25.10;;;;;;;;;;143751;614;45022;-57
2021/11/03 01:10:54;;;;;;;36.83;26.20;;;;;;;;;;143753;606;46019;-58
2021/11/03 01:13:26;;;;;;;36.08;26.17;;;;;;;;;;143746;574;46010;-58
2021/11/03 01:15:58;;;;;;;34.85;25.75;;;;;;;;;;143748;682;45909;-58
2021/11/03 01:18:32;;;;;;;33.47;25.65;;;;;;;;;;143750;569;45023;-58
2021/11/03 01:21:00;;;;;;;36.25;27.27;;;;;;;;;;143750;571;46018;-58
2021/11/03 01:23:28;;;;;;;37.53;28.50;;;;;;;;;;143747;600;46011;-58
2021/11/03 01:25:56;;;;;;;29.50;23.20;;;;;;;;;;143748;590;45019;-57
2021/11/03 01:28:23;;;;;;;33.78;26.20;;;;;;;;;;143732;580;46012;-58
2021/11/03 01:30:50;;;;;;;38.67;27.70;;;;;;;;;;143717;579;48018;-57
2021/11/03 01:33:19;;;;;;;42.70;31.20;;;;;;;;;;143726;673;47010;-57
2021/11/03 01:35:46;;;;;;;37.55;28.35;;;;;;;;;;143723;602;46018;-58
2021/11/03 01:38:14;;;;;;;41.78;30.45;;;;;;;;;;143728;705;46022;-58
2021/11/03 01:40:44;;;;;;;36.60;28.80;;;;;;;;;;143725;564;47021;-58
2021/11/03 01:43:33;;;;;;;38.00;27.08;;;;;;;;;;143725;618;47010;-58
2021/11/03 01:46:47;;;;;;;42.60;28.52;;;;;;;;;;143726;586;46020;-58
2021/11/03 01:49:27;;;;;;;27.65;19.48;;;;;;;;;;143728;608;46025;-58
2021/11/03 01:52:03;;;;;;;27.02;17.95;;;;;;;;;;143725;591;47018;-57
2021/11/03 01:54:40;;;;;;;27.55;20.50;;;;;;;;;;143724;589;47010;-58
2021/11/03 01:57:19;;;;;;;39.10;25.37;;;;;;;;;;143720;583;46018;-57
2021/11/03 01:59:50;;;;;;;32.45;22.58;;;;;;;;;;143728;585;46022;-59
2021/11/03 02:02:20;;;;;;;42.80;28.62;;;;;;;;;;143725;655;47020;-59
2021/11/03 02:04:48;;;;;;;29.50;23.00;;;;;;;;;;143722;595;49010;-59
2021/11/03 02:07:23;;;;;;;35.00;24.98;;;;;;;;;;143721;586;46018;-59
2021/11/03 02:09:51;;;;;;;34.42;23.42;;;;;;;;;;143729;571;46022;-58
2021/11/03 02:12:21;;;;;;;44.13;28.17;;;;;;;;;;143728;564;47018;-59
2021/11/03 02:14:49;;;;;;;33.15;25.05;;;;;;;;;;143724;569;47010;-59
2021/11/03 02:17:17;;;;;;;33.20;21.30;;;;;;;;;;143726;722;46019;-59
2021/11/03 02:19:45;;;;;;;36.83;24.08;;;;;;;;;;143728;571;47012;-57
2021/11/03 02:22:36;;;;;;;32.95;22.62;;;;;;;;;;143718;589;47018;-58
2021/11/03 02:25:08;;;;;;;30.90;22.02;;;;;;;;;;143725;569;47010;-59
2021/11/03 02:27:40;;;;;;;25.70;16.20;;;;;;;;;;143724;604;46018;-57
2021/11/03 02:30:10;;;;;;;26.23;14.87;;;;;;;;;;143730;741;46022;-57
2021/11/03 02:32:40;;;;;;;21.35;12.27;;;;;;;;;;143727;564;47018;-58
2021/11/03 02:35:08;;;;;;;18.62;10.95;;;;;;;;;;143718;595;47010;-58
2021/11/03 02:37:51;;;;;;;22.25;12.27;;;;;;;;;;143726;587;46018;-58
2021/11/03 02:40:38;;;;;;;25.90;16.48;;;;;;;;;;143731;611;46023;-58
2021/11/03 02:43:26;;;;;;;23.67;15.13;;;;;;;;;;143727;571;47018;-57
2021/11/03 02:45:56;;;;;;;18.48;13.62;;;;;;;;;;143729;586;46022;-59
2021/11/03 02:48:25;;;;;;;28.65;13.90;;;;;;;;;;143720;564;46019;-58
2021/11/03 02:51:06;;;;;;;33.90;17.05;;;;;;;;;;143729;569;46022;-58
2021/11/03 02:53:36;;;;;;;26.33;15.35;;;;;;;;;;143726;573;47020;-57
2021/11/03 02:56:04;;;;;;;24.87;13.45;;;;;;;;;;143726;576;47010;-58
2021/11/03 02:58:31;;;;;;;24.05;15.43;;;;;;;;;;143725;745;46018;-57
2021/11/03 03:01:11;;;;;;;21.12;13.88;;;;;;;;;;143730;564;46022;-59
2021/11/03 03:03:38;;;;;;;23.15;16.35;;;;;;;;;;143727;579;47021;-57
2021/11/03 03:06:09;;;;;;;17.08;10.02;;;;;;;;;;143726;630;47010;-58
2021/11/03 03:08:36;;;;;;;18.12;9.27;;;;;;;;;;143725;616;46018;-58
2021/11/03 03:11:04;;;;;;;20.08;15.10;;;;;;;;;;143729;569;46023;-57
2021/11/03 03:13:32;;;;;;;16.55;11.05;;;;;;;;;;143720;576;47018;-57
2021/11/03 03:15:59;;;;;;;18.48;11.75;;;;;;;;;;143727;588;47010;-58
2021/11/03 03:18:27;;;;;;;21.00;13.55;;;;;;;;;;143726;578;46019;-58
2021/11/03 03:20:54;;;;;;;18.50;14.80;;;;;;;;;;143729;569;46026;-57
2021/11/03 03:23:21;;;;;;;16.75;11.63;;;;;;;;;;143729;669;47019;-57
2021/11/03 03:25:50;;;;;;;19.12;12.13;;;;;;;;;;143727;582;47010;-57
2021/11/03 03:28:18;;;;;;;21.48;16.02;;;;;;;;;;143719;647;46018;-57
2021/11/03 03:30:45;;;;;;;17.45;10.10;;;;;;;;;;143730;570;46022;-58
2021/11/03 03:33:12;;;;;;;18.10;9.98;;;;;;;;;;143729;590;47018;-58
2021/11/03 03:35:39;;;;;;;19.52;8.20;;;;;;;;;;143726;582;47010;-57
2021/11/03 03:38:07;;;;;;;20.62;9.75;;;;;;;;;;143721;573;46018;-58
2021/11/03 03:40:34;;;;;;;22.17;12.25;;;;;;;;;;143729;585;47012;-58
2021/11/03 03:43:01;;;;;;;20.12;12.93;;;;;;;;;;143727;609;46915;-57
2021/11/03 03:45:28;;;;;;;25.05;11.60;;;;;;;;;;143725;591;47011;-57
2021/11/03 03:47:55;;;;;;;22.60;12.98;;;;;;;;;;143727;627;46019;-57
2021/11/03 03:50:22;;;;;;;20.67;12.45;;;;;;;;;;143729;564;46022;-59
2021/11/03 03:52:49;;;;;;;18.73;12.63;;;;;;;;;;143726;600;47027;-58
2021/11/03 03:55:17;;;;;;;22.55;13.45;;;;;;;;;;143726;599;47011;-57
2021/11/03 03:57:44;;;;;;;19.37;13.75;;;;;;;;;;143727;574;46018;-57
2021/11/03 04:00:17;;;;;;;24.40;13.90;;;;;;;;;;143730;583;46022;-58
2021/11/03 04:02:44;;;;;;;19.98;12.77;;;;;;;;;;143720;588;47021;-57
2021/11/03 04:05:12;;;;;;;20.20;13.40;;;;;;;;;;143726;689;47010;-58
2021/11/03 04:07:39;;;;;;;20.95;11.07;;;;;;;;;;143726;582;46018;-58
2021/11/03 04:10:07;;;;;;;17.10;10.15;;;;;;;;;;143730;579;46023;-58
2021/11/03 04:12:34;;;;;;;18.73;9.77;;;;;;;;;;143727;581;47018;-58
2021/11/03 04:15:01;;;;;;;17.35;12.52;;;;;;;;;;143726;564;47010;-57
2021/11/03 04:17:28;;;;;;;52.80;23.50;;;;;;;;;;143729;648;46019;-57
2021/11/03 04:19:55;;;;;;;63.87;35.45;;;;;;;;;;143730;593;46022;-57
2021/11/03 04:22:22;;;;;;;59.97;36.67;;;;;;;;;;143727;670;47019;-59
2021/11/03 04:24:49;;;;;;;64.05;36.03;;;;;;;;;;143725;614;47010;-58
2021/11/03 04:27:16;;;;;;;61.20;33.05;;;;;;;;;;143720;575;46018;-58
2021/11/03 04:29:44;;;;;;;39.53;24.33;;;;;;;;;;143730;572;46022;-58
2021/11/03 04:32:11;;;;;;;43.28;25.62;;;;;;;;;;143727;569;47018;-57
2021/11/03 04:34:38;;;;;;;44.35;29.77;;;;;;;;;;143727;577;47010;-58
2021/11/03 04:37:06;;;;;;;57.88;34.15;;;;;;;;;;143728;661;46018;-57
2021/11/03 04:39:33;;;;;;;60.05;34.88;;;;;;;;;;143729;574;46023;-57
2021/11/03 04:42:00;;;;;;;58.30;36.20;;;;;;;;;;143725;651;47018;-58
2021/11/03 04:44:27;;;;;;;56.33;31.15;;;;;;;;;;143726;633;47010;-59
2021/11/03 04:46:54;;;;;;;43.78;26.80;;;;;;;;;;143726;586;46019;-58
2021/11/03 04:49:21;;;;;;;38.97;24.17;;;;;;;;;;143730;569;46022;-57
2021/11/03 04:51:48;;;;;;;47.62;29.15;;;;;;;;;;143722;582;47018;-57
2021/11/03 04:54:15;;;;;;;43.17;25.73;;;;;;;;;;143726;684;47010;-58
2021/11/03 04:56:42;;;;;;;42.03;25.30;;;;;;;;;;143726;589;46018;-58
2021/11/03 04:59:10;;;;;;;40.12;23.35;;;;;;;;;;143729;624;46022;-58
2021/11/03 05:01:37;;;;;;;33.75;22.48;;;;;;;;;;143725;583;47019;-60
2021/11/03 05:04:04;;;;;;;35.42;22.20;;;;;;;;;;143727;598;47010;-58
2021/11/03 05:06:34;;;;;;;37.20;22.33;;;;;;;;;;143721;590;46018;-59
2021/11/03 05:09:04;;;;;;;31.60;19.70;;;;;;;;;;143730;583;46022;-59
2021/11/03 05:11:31;;;;;;;52.42;21.37;;;;;;;;;;143728;608;47018;-60
2021/11/03 05:13:58;;;;;;;65.75;26.10;;;;;;;;;;143727;616;47010;-59
2021/11/03 05:16:27;;;;;;;77.55;31.70;;;;;;;;;;143721;584;46018;-60
2021/11/03 05:18:55;;;;;;;69.90;29.37;;;;;;;;;;143728;564;47012;-59
2021/11/03 05:21:22;;;;;;;48.90;23.27;;;;;;;;;;143727;670;47018;-60
2021/11/03 05:23:50;;;;;;;34.10;19.58;;;;;;;;;;143725;569;47010;-58
2021/11/03 05:26:21;;;;;;;31.70;16.60;;;;;;;;;;143726;643;47010;-58
2021/11/03 05:28:51;;;;;;;24.58;14.30;;;;;;;;;;143729;570;46022;-58
2021/11/03 05:31:19;;;;;;;25.62;15.43;;;;;;;;;;143727;647;47018;-57
2021/11/03 05:33:46;;;;;;;46.13;22.17;;;;;;;;;;143724;569;47010;-58
2021/11/03 05:36:23;;;;;;;33.03;18.77;;;;;;;;;;143726;590;46018;-59
2021/11/03 05:38:50;;;;;;;37.80;21.90;;;;;;;;;;143730;586;46023;-58
2021/11/03 05:41:17;;;;;;;42.90;22.85;;;;;;;;;;143719;673;47018;-59
2021/11/03 05:43:45;;;;;;;51.30;32.78;;;;;;;;;;143727;701;47010;-58
2021/11/03 05:46:17;;;;;;;33.45;20.40;;;;;;;;;;143728;676;46019;-59
2021/11/03 05:48:47;;;;;;;50.50;20.98;;;;;;;;;;143728;723;46022;-57
2021/11/03 05:51:15;;;;;;;34.22;20.48;;;;;;;;;;143727;709;47018;-57
2021/11/03 05:53:42;;;;;;;43.42;22.40;;;;;;;;;;143726;566;47010;-58
2021/11/03 05:56:10;;;;;;;40.00;24.80;;;;;;;;;;143727;690;46018;-58
2021/11/03 05:58:37;;;;;;;45.92;29.63;;;;;;;;;;143730;703;46022;-58
2021/11/03 06:01:05;;;;;;;41.45;25.48;;;;;;;;;;143727;569;47019;-58
2021/11/03 06:03:32;;;;;;;72.75;35.65;;;;;;;;;;143725;575;47010;-58
2021/11/03 06:05:59;;;;;;;65.62;35.25;;;;;;;;;;143721;566;46018;-57
2021/11/03 06:08:26;;;;;;;61.47;36.53;;;;;;;;;;143729;564;46023;-57
2021/11/03 06:10:55;;;;;;;48.30;27.20;;;;;;;;;;143727;606;47018;-58
2021/11/03 06:13:22;;;;;;;38.28;22.45;;;;;;;;;;143727;612;47010;-58
2021/11/03 06:15:50;;;;;;;48.45;30.75;;;;;;;;;;143727;589;46019;-57
2021/11/03 06:18:17;;;;;;;66.22;40.55;;;;;;;;;;143730;589;46022;-58
2021/11/03 06:20:44;;;;;;;69.12;41.25;;;;;;;;;;143728;570;47018;-58
2021/11/03 06:23:11;;;;;;;45.75;28.30;;;;;;;;;;143726;584;47011;-58
2021/11/03 06:25:38;;;;;;;75.57;49.10;;;;;;;;;;143725;569;46018;-58
2021/11/03 06:28:05;;;;;;;51.97;33.08;;;;;;;;;;143727;587;47012;-57
2021/11/03 06:30:35;;;;;;;105.93;64.68;;;;;;;;;;143720;601;47019;-57
2021/11/03 06:33:03;;;;;;;152.48;109.65;;;;;;;;;;143727;566;47010;-58
2021/11/03 06:35:31;;;;;;;102.20;72.40;;;;;;;;;;143727;608;46018;-57
2021/11/03 06:37:58;;;;;;;105.25;77.62;;;;;;;;;;143730;569;46022;-59
2021/11/03 06:40:26;;;;;;;79.53;52.62;;;;;;;;;;143726;585;47018;-58
2021/11/03 06:42:54;;;;;;;79.70;56.58;;;;;;;;;;143727;580;47010;-59
2021/11/03 06:45:22;;;;;;;70.82;43.00;;;;;;;;;;143727;752;46018;-58
2021/11/03 06:47:50;;;;;;;66.97;46.13;;;;;;;;;;143730;569;46022;-57
2021/11/03 06:50:21;;;;;;;60.42;41.25;;;;;;;;;;143727;606;47018;-57
2021/11/03 06:52:50;;;;;;;59.00;37.30;;;;;;;;;;143727;569;47010;-58
2021/11/03 06:55:18;;;;;;;61.15;38.63;;;;;;;;;;143720;600;46018;-58
2021/11/03 06:57:45;;;;;;;58.05;36.90;;;;;;;;;;143729;617;46022;-57
2021/11/03 07:00:16;;;;;;;47.33;32.25;;;;;;;;;;143727;590;47019;-58
2021/11/03 07:02:43;;;;;;;59.55;40.15;;;;;;;;;;143725;631;47010;-59
2021/11/03 07:05:10;;;;;;;46.97;29.12;;;;;;;;;;143724;720;46018;-59
2021/11/03 07:07:37;;;;;;;45.33;31.23;;;;;;;;;;143729;631;46022;-58
2021/11/03 07:10:07;;;;;;;45.67;28.98;;;;;;;;;;143724;620;47018;-58
2021/11/03 07:12:34;;;;;;;51.65;32.25;;;;;;;;;;143724;587;47010;-58
2021/11/03 07:15:02;;;;;;;47.42;30.73;;;;;;;;;;143724;570;46019;-51
2021/11/03 07:17:29;;;;;;;44.60;30.60;;;;;;;;;;143725;584;46023;-59
2021/11/03 07:19:56;;;;;;;45.45;26.52;;;;;;;;;;143718;888;47020;-59
2021/11/03 07:22:23;;;;;;;36.92;21.15;;;;;;;;;;143724;640;47011;-58
2021/11/03 07:24:50;;;;;;;34.38;22.30;;;;;;;;;;143723;559;46026;-57
2021/11/03 07:27:17;;;;;;;44.65;27.37;;;;;;;;;;143726;773;46022;-57
2021/11/03 07:29:44;;;;;;;34.75;22.25;;;;;;;;;;143725;699;47019;-57
2021/11/03 07:32:11;;;;;;;38.17;22.58;;;;;;;;;;143722;565;47010;-58
2021/11/03 07:34:38;;;;;;;36.03;23.33;;;;;;;;;;143724;588;46018;-58
2021/11/03 07:37:07;;;;;;;63.42;40.22;;;;;;;;;;143727;579;47012;-58
2021/11/03 07:39:34;;;;;;;48.75;32.85;;;;;;;;;;143724;572;47018;-59
2021/11/03 07:42:02;;;;;;;47.88;31.00;;;;;;;;;;143725;692;47010;-59
2021/11/03 07:44:29;;;;;;;49.92;30.35;;;;;;;;;;143719;641;46018;-58
2021/11/03 07:46:56;;;;;;;44.05;28.40;;;;;;;;;;143729;578;46022;-61
2021/11/03 07:49:23;;;;;;;45.92;27.60;;;;;;;;;;143724;580;47018;-59
2021/11/03 07:51:50;;;;;;;40.15;32.10;;;;;;;;;;143725;609;47010;-59
2021/11/03 07:54:17;;;;;;;49.90;34.92;;;;;;;;;;143723;607;46019;-57
2021/11/03 07:56:45;;;;;;;45.35;30.60;;;;;;;;;;143726;570;46022;-58
2021/11/03 07:59:15;;;;;;;42.22;27.05;;;;;;;;;;143726;566;46020;-57
2021/11/03 08:01:43;;;;;;;32.60;22.45;;;;;;;;;;143726;578;46032;-57
2021/11/03 08:04:10;;;;;;;29.48;18.98;;;;;;;;;;143725;566;46018;-59
2021/11/03 08:06:39;;;;;;;39.55;20.65;;;;;;;;;;143728;589;46022;-58
2021/11/03 08:09:07;;;;;;;22.17;15.57;;;;;;;;;;143718;587;47018;-58
2021/11/03 08:14:34;;;;;;;27.37;16.58;;;;;;;;;;143725;608;47018;-59
2021/11/03 08:17:08;;;;;;;21.50;13.82;;;;;;;;;;143728;564;46023;-59
2021/11/03 08:19:46;;;;;;;26.12;16.77;;;;;;;;;;143721;599;50018;-59
2021/11/03 08:22:14;;;;;;;25.20;14.35;;;;;;;;;;143724;573;47010;-59
2021/11/03 08:24:41;;;;;;;26.40;16.48;;;;;;;;;;143725;598;46018;-60
2021/11/03 08:27:09;;;;;;;28.40;15.85;;;;;;;;;;143727;723;47012;-60
2021/11/03 08:29:38;;;;;;;26.35;15.98;;;;;;;;;;143724;573;47020;-59
2021/11/03 08:32:10;;;;;;;34.42;14.70;;;;;;;;;;143723;592;47010;-59
2021/11/03 08:34:37;;;;;;;21.98;13.90;;;;;;;;;;143719;591;46018;-58
2021/11/03 08:37:12;;;;;;;23.35;14.38;;;;;;;;;;143726;623;46029;-59
2021/11/03 08:39:41;;;;;;;25.05;14.27;;;;;;;;;;143725;602;47018;-58
2021/11/03 08:42:09;;;;;;;26.40;14.95;;;;;;;;;;143723;593;47010;-58
2021/11/03 08:44:37;;;;;;;31.40;15.00;;;;;;;;;;143724;575;46018;-59
2021/11/03 08:47:05;;;;;;;27.20;16.00;;;;;;;;;;143727;587;46037;-58
2021/11/03 08:49:35;;;;;;;33.13;16.02;;;;;;;;;;143725;563;47018;-60
2021/11/03 08:52:04;;;;;;;27.77;14.60;;;;;;;;;;143725;581;47011;-57
2021/11/03 08:54:33;;;;;;;22.35;14.63;;;;;;;;;;143724;584;46018;-58
2021/11/03 08:57:01;;;;;;;28.17;14.93;;;;;;;;;;143726;589;46022;-58
2021/11/03 08:59:28;;;;;;;29.20;15.23;;;;;;;;;;143718;564;47019;-57
2021/11/03 09:01:55;;;;;;;29.65;13.98;;;;;;;;;;143724;585;47010;-58
2021/11/03 09:04:22;;;;;;;18.45;11.40;;;;;;;;;;143723;663;46018;-57
2021/11/03 09:06:49;;;;;;;19.70;11.50;;;;;;;;;;143726;573;46022;-57
2021/11/03 09:09:17;;;;;;;20.00;10.95;;;;;;;;;;143724;656;47018;-57
2021/11/03 09:11:46;;;;;;;26.85;16.87;;;;;;;;;;143727;571;46022;-58
2021/11/03 09:14:13;;;;;;;27.30;13.95;;;;;;;;;;143724;620;46018;-57
2021/11/03 09:16:40;;;;;;;26.45;12.40;;;;;;;;;;143727;602;46022;-59
2021/11/03 09:19:07;;;;;;;30.45;21.92;;;;;;;;;;143725;581;47018;-58
2021/11/03 09:21:34;;;;;;;18.92;11.30;;;;;;;;;;143724;618;47010;-58
2021/11/03 09:24:01;;;;;;;16.27;10.23;;;;;;;;;;143718;579;46018;-58
2021/11/03 09:26:28;;;;;;;17.98;10.07;;;;;;;;;;143728;570;46022;-58
2021/11/03 09:28:58;;;;;;;24.05;14.13;;;;;;;;;;143724;628;47019;-58
2021/11/03 09:31:27;;;;;;;19.12;13.98;;;;;;;;;;143724;621;47010;-58
2021/11/03 09:33:54;;;;;;;18.83;11.20;;;;;;;;;;143723;589;46018;-57
2021/11/03 09:36:23;;;;;;;21.85;13.80;;;;;;;;;;143727;566;46022;-57
2021/11/03 09:38:51;;;;;;;15.60;9.82;;;;;;;;;;143725;571;47018;-59
2021/11/03 09:41:26;;;;;;;18.85;9.73;;;;;;;;;;143723;575;47010;-57
2021/11/03 09:43:59;;;;;;;14.40;9.32;;;;;;;;;;143722;604;46018;-58
2021/11/03 09:46:41;;;;;;;17.12;9.45;;;;;;;;;;143727;649;46023;-57
2021/11/03 09:49:27;;;;;;;17.33;10.25;;;;;;;;;;143719;571;47020;-58
2021/11/03 09:52:11;;;;;;;17.12;11.55;;;;;;;;;;143720;619;47010;-57
2021/11/03 09:54:38;;;;;;;22.50;15.32;;;;;;;;;;143724;564;46018;-57
2021/11/03 09:57:48;;;;;;;24.00;14.90;;;;;;;;;;143727;563;47012;-57
2021/11/03 10:00:41;;;;;;;20.70;13.90;;;;;;;;;;143715;614;50010;-57
2021/11/03 10:03:33;;;;;;;14.52;9.82;;;;;;;;;;143721;581;48010;-57
2021/11/03 10:06:48;;;;;;;22.85;14.15;;;;;;;;;;143721;681;48015;-60
2021/11/03 10:09:16;;;;;;;17.85;12.07;;;;;;;;;;143732;594;46022;-58
2021/11/03 10:11:48;;;;;;;18.62;12.50;;;;;;;;;;143721;632;50018;-57
2021/11/03 10:14:16;;;;;;;41.70;31.17;;;;;;;;;;143719;643;48010;-58
2021/11/03 10:16:52;;;;;;;43.72;33.88;;;;;;;;;;143720;591;46018;-58
2021/11/03 10:19:37;;;;;;;27.92;20.35;;;;;;;;;;143722;578;49012;-58
2021/11/03 10:22:38;;;;;;;21.10;13.27;;;;;;;;;;143724;645;47034;-57
2021/11/03 10:25:26;;;;;;;25.25;18.37;;;;;;;;;;143722;640;47010;-59
2021/11/03 10:28:00;;;;;;;25.77;18.48;;;;;;;;;;143723;594;46024;-59
2021/11/03 10:30:47;;;;;;;24.25;16.60;;;;;;;;;;143727;577;46023;-58
2021/11/03 10:33:32;;;;;;;25.62;15.45;;;;;;;;;;143724;582;47018;-60
2021/11/03 10:36:12;;;;;;;14.70;10.55;;;;;;;;;;143724;609;47011;-59
2021/11/03 10:38:48;;;;;;;21.95;14.48;;;;;;;;;;143724;654;46018;-61
2021/11/03 10:41:29;;;;;;;19.00;11.95;;;;;;;;;;143726;601;47022;-59
2021/11/03 10:44:24;;;;;;;18.58;9.07;;;;;;;;;;143718;595;47019;-57
2021/11/03 10:46:57;;;;;;;14.32;9.73;;;;;;;;;;143727;583;46022;-57
2021/11/03 10:49:49;;;;;;;17.75;11.75;;;;;;;;;;143723;619;46018;-57
2021/11/03 10:52:44;;;;;;;19.80;13.80;;;;;;;;;;143727;569;46023;-58
2021/11/03 10:55:42;;;;;;;16.75;9.50;;;;;;;;;;143723;564;47018;-59
2021/11/03 10:58:33;;;;;;;21.37;9.30;;;;;;;;;;143724;592;47011;-58
2021/11/03 11:01:05;;;;;;;12.80;8.20;;;;;;;;;;143727;580;46020;-60
2021/11/03 11:03:44;;;;;;;13.90;8.68;;;;;;;;;;143727;573;46022;-59
2021/11/03 11:06:26;;;;;;;22.87;9.25;;;;;;;;;;143726;589;47019;-59
2021/11/03 11:09:36;;;;;;;18.27;12.02;;;;;;;;;;143724;599;47010;-59
2021/11/03 11:12:42;;;;;;;30.80;25.20;;;;;;;;;;143720;678;46020;-60
2021/11/03 11:16:00;;;;;;;44.15;36.17;;;;;;;;;;143727;581;46023;-57
2021/11/03 11:19:01;;;;;;;41.75;32.78;;;;;;;;;;143721;580;51035;-59
2021/11/03 11:22:04;;;;;;;69.70;54.65;;;;;;;;;;143724;605;47010;-57
2021/11/03 11:24:40;;;;;;;47.45;35.58;;;;;;;;;;143722;573;46022;-57
2021/11/03 11:27:58;;;;;;;46.65;36.35;;;;;;;;;;143728;575;46022;-58
2021/11/03 11:30:49;;;;;;;25.62;16.62;;;;;;;;;;143723;602;47018;-57
2021/11/03 11:33:29;;;;;;;14.25;6.95;;;;;;;;;;143724;571;47010;-58
2021/11/03 11:36:40;;;;;;;16.02;7.72;;;;;;;;;;143723;571;46019;-59
2021/11/03 11:39:35;;;;;;;18.33;14.55;;;;;;;;;;143725;577;47010;-57
2021/11/03 11:42:17;;;;;;;23.73;14.55;;;;;;;;;;143718;575;47019;-59
2021/11/03 11:45:11;;;;;;;20.37;12.70;;;;;;;;;;143723;657;47010;-59
2021/11/03 11:47:42;;;;;;;21.30;14.18;;;;;;;;;;143721;666;46018;-58
2021/11/03 11:50:25;;;;;;;20.52;11.27;;;;;;;;;;143727;605;46022;-60
2021/11/03 11:52:54;;;;;;;19.27;11.45;;;;;;;;;;143724;581;48018;-59
2021/11/03 11:55:25;;;;;;;13.73;6.87;;;;;;;;;;143724;622;47010;-59
2021/11/03 11:58:22;;;;;;;19.92;12.10;;;;;;;;;;143723;571;46018;-58
2021/11/03 12:01:20;;;;;;;20.80;6.25;;;;;;;;;;143728;713;46023;-58
2021/11/03 12:04:32;;;;;;;13.70;7.70;;;;;;;;;;143725;569;47018;-58
2021/11/03 12:07:18;;;;;;;12.27;6.50;;;;;;;;;;143725;604;47010;-59
2021/11/03 12:10:15;;;;;;;15.65;6.82;;;;;;;;;;143718;591;47014;-58
2021/11/03 12:13:20;;;;;;;13.90;6.15;;;;;;;;;;143727;585;46022;-60
2021/11/03 12:16:28;;;;;;;11.95;7.10;;;;;;;;;;143725;569;47020;-58
2021/11/03 12:18:59;;;;;;;16.65;7.53;;;;;;;;;;143724;676;47010;-59
2021/11/03 12:21:38;;;;;;;10.93;6.03;;;;;;;;;;143724;737;46019;-58
2021/11/03 12:24:30;;;;;;;13.32;7.90;;;;;;;;;;143728;625;46022;-57
2021/11/03 12:27:30;;;;;;;12.07;8.13;;;;;;;;;;143725;564;47022;-58
2021/11/03 12:30:21;;;;;;;13.07;7.78;;;;;;;;;;143725;604;47010;-58
2021/11/03 12:33:01;;;;;;;12.60;5.62;;;;;;;;;;143723;606;46020;-58
2021/11/03 12:36:02;;;;;;;11.55;4.62;;;;;;;;;;143726;589;47013;-58
2021/11/03 12:38:47;;;;;;;13.30;6.90;;;;;;;;;;143717;586;47018;-59
2021/11/03 12:41:21;;;;;;;14.05;6.82;;;;;;;;;;143724;587;47010;-60
2021/11/03 12:43:56;;;;;;;11.90;6.45;;;;;;;;;;143723;570;46019;-58
2021/11/03 12:46:23;;;;;;;8.75;4.32;;;;;;;;;;143729;600;46022;-58
2021/11/03 12:48:58;;;;;;;10.45;6.00;;;;;;;;;;143724;650;47019;-59
2021/11/03 12:51:31;;;;;;;13.50;6.25;;;;;;;;;;143723;631;47011;-59
2021/11/03 12:54:32;;;;;;;14.10;4.90;;;;;;;;;;143725;638;46018;-59
2021/11/03 12:57:05;;;;;;;9.57;6.20;;;;;;;;;;143728;600;46024;-60
2021/11/03 12:59:40;;;;;;;11.13;6.33;;;;;;;;;;143724;612;47018;-59
2021/11/03 13:02:22;;;;;;;13.20;5.03;;;;;;;;;;143722;582;47010;-60
2021/11/03 13:05:33;;;;;;;9.82;6.22;;;;;;;;;;143717;572;46018;-59
2021/11/03 13:08:01;;;;;;;10.77;5.87;;;;;;;;;;143727;593;46023;-58
2021/11/03 13:10:38;;;;;;;11.07;5.47;;;;;;;;;;143725;590;47020;-60
2021/11/03 13:13:21;;;;;;;17.10;6.55;;;;;;;;;;143724;662;47011;-58
2021/11/03 13:16:03;;;;;;;11.82;5.25;;;;;;;;;;143722;618;46018;-59
2021/11/03 13:18:42;;;;;;;11.27;4.75;;;;;;;;;;143727;603;46022;-59
2021/11/03 13:21:35;;;;;;;10.82;5.62;;;;;;;;;;143726;569;47021;-58
2021/11/03 13:24:33;;;;;;;10.93;5.80;;;;;;;;;;143724;612;47010;-60
2021/11/03 13:27:09;;;;;;;11.00;6.50;;;;;;;;;;143724;570;46020;-58
2021/11/03 13:29:38;;;;;;;13.13;6.68;;;;;;;;;;143729;579;46023;-59
2021/11/03 13:32:32;;;;;;;13.73;5.72;;;;;;;;;;143723;582;47020;-59
2021/11/03 13:35:32;;;;;;;15.38;6.47;;;;;;;;;;143724;577;47010;-58
2021/11/03 13:38:02;;;;;;;11.77;5.62;;;;;;;;;;143725;621;46020;-58
2021/11/03 13:40:35;;;;;;;18.35;6.37;;;;;;;;;;143728;579;46022;-59
2021/11/03 13:43:17;;;;;;;12.73;5.82;;;;;;;;;;143726;581;47012;-58
2021/11/03 13:45:53;;;;;;;11.95;6.60;;;;;;;;;;143724;564;47010;-58
2021/11/03 13:48:43;;;;;;;17.33;7.15;;;;;;;;;;143726;605;46018;-59
2021/11/03 13:51:22;;;;;;;15.38;6.78;;;;;;;;;;143727;569;47012;-60
2021/11/03 13:53:59;;;;;;;13.73;6.80;;;;;;;;;;143726;598;47020;-59
2021/11/03 13:56:28;;;;;;;17.60;7.57;;;;;;;;;;143725;579;47010;-60
2021/11/03 13:59:23;;;;;;;17.02;6.82;;;;;;;;;;143723;584;46019;-60
2021/11/03 14:02:27;;;;;;;15.60;8.05;;;;;;;;;;143727;569;46022;-60
2021/11/03 14:04:54;;;;;;;15.35;8.27;;;;;;;;;;143726;565;47019;-60
2021/11/03 14:07:27;;;;;;;13.62;7.28;;;;;;;;;;143726;632;47010;-60
2021/11/03 14:09:57;;;;;;;13.02;7.28;;;;;;;;;;143723;593;46018;-60
2021/11/03 14:12:24;;;;;;;14.07;6.90;;;;;;;;;;143729;566;46022;-59
2021/11/03 14:14:54;;;;;;;16.67;7.20;;;;;;;;;;143727;608;47018;-59
2021/11/03 14:17:37;;;;;;;15.32;7.55;;;;;;;;;;143726;569;47010;-61
2021/11/03 14:20:41;;;;;;;23.90;15.85;;;;;;;;;;143723;569;46018;-60
2021/11/03 14:23:14;;;;;;;22.40;14.60;;;;;;;;;;143728;622;47012;-59
2021/11/03 14:25:42;;;;;;;45.12;31.55;;;;;;;;;;143718;605;47018;-59
2021/11/03 14:28:12;;;;;;;33.72;23.48;;;;;;;;;;143724;566;47010;-56
2021/11/03 14:30:55;;;;;;;24.33;15.25;;;;;;;;;;143725;585;46018;-57
2021/11/03 14:33:28;;;;;;;31.77;21.73;;;;;;;;;;143728;615;46022;-58
2021/11/03 14:35:57;;;;;;;25.90;17.40;;;;;;;;;;143725;592;47021;-57
2021/11/03 14:38:32;;;;;;;18.62;9.57;;;;;;;;;;143725;576;47010;-57
2021/11/03 14:41:01;;;;;;;25.12;15.63;;;;;;;;;;143725;698;46018;-56
2021/11/03 14:43:28;;;;;;;20.48;14.50;;;;;;;;;;143728;622;46023;-57
2021/11/03 14:45:56;;;;;;;22.90;15.63;;;;;;;;;;143722;590;47018;-57
2021/11/03 14:48:28;;;;;;;18.37;13.57;;;;;;;;;;143725;593;47010;-58
2021/11/03 14:50:55;;;;;;;20.48;10.82;;;;;;;;;;143719;633;46019;-57
2021/11/03 14:53:26;;;;;;;20.52;12.10;;;;;;;;;;143727;600;46022;-57
2021/11/03 14:55:55;;;;;;;15.82;7.75;;;;;;;;;;143725;574;47019;-57
2021/11/03 14:58:23;;;;;;;21.62;11.55;;;;;;;;;;143725;579;47010;-57
2021/11/03 15:00:54;;;;;;;20.62;12.35;;;;;;;;;;143722;576;46018;-58